Time;durP1;ratioP1;P1;durP2;ratioP2;P2;SDS_P1;SDS_P2;PMS_P1;PMS_P2;Temp;Humidity;BMP_temperature;BMP_pressure;BME280_temperature;BME280_humidity;BME280_pressure;Samples;Min_cycle;Max_cycle;Signal;HPM_P1;HPM_P2
2022/06/14 00:00:54;;;;;;;;;;;14.70;46.00;;;;;;5016083;28;19924;-90
2022/06/14 00:03:34;;;;;;;;;;;14.70;46.10;;;;;;5014597;28;19921;-89
2022/06/14 00:06:04;;;;;;;;;;;14.60;46.00;;;;;;4995494;28;19960;-89
2022/06/14 00:08:30;;;;;;;;;;;14.60;45.90;;;;;;4995570;28;19914;-89
2022/06/14 00:10:57;;;;;;;;;;;14.50;46.00;;;;;;4996767;28;19925;-89
2022/06/14 00:13:23;;;;;;;;;;;14.50;46.10;;;;;;4995073;28;20056;-91
2022/06/14 00:15:48;;;;;;;;;;;14.50;46.00;;;;;;4978631;28;19953;-90
2022/06/14 00:18:15;;;;;;;;;;;14.50;46.00;;;;;;4980452;28;19954;-90
2022/06/14 00:20:41;;;;;;;;;;;14.40;46.10;;;;;;4997674;28;19924;-89
2022/06/14 00:23:06;;;;;;;;;;;14.40;46.10;;;;;;4995569;28;20337;-90
2022/06/14 00:25:36;;;;;;;;;;;14.40;46.20;;;;;;4999021;28;19918;-90
2022/06/14 00:28:03;;;;;;;;;;;14.40;46.20;;;;;;4998347;28;20342;-90
2022/06/14 00:30:29;;;;;;;;;;;14.40;46.30;;;;;;4998500;28;19918;-90
2022/06/14 00:32:54;;;;;;;;;;;14.30;46.30;;;;;;4995483;28;20321;-89
2022/06/14 00:35:20;;;;;;;;;;;14.30;46.40;;;;;;4995552;28;19965;-87
2022/06/14 00:37:46;;;;;;;;;;;14.30;46.80;;;;;;4994921;28;20247;-88
2022/06/14 00:40:13;;;;;;;;;;;14.30;46.90;;;;;;5028768;28;19925;-88
2022/06/14 00:42:39;;;;;;;;;;;14.20;46.90;;;;;;5015251;28;19971;-90
2022/06/14 00:45:04;;;;;;;;;;;14.20;47.00;;;;;;4999169;28;19910;-88
2022/06/14 00:47:33;;;;;;;;;;;14.10;47.10;;;;;;4995965;28;20012;-89
2022/06/14 00:50:01;;;;;;;;;;;14.10;47.30;;;;;;5011107;28;19913;-89
2022/06/14 00:52:35;;;;;;;;;;;14.00;47.30;;;;;;5014863;28;19914;-88
2022/06/14 00:55:04;;;;;;;;;;;14.10;47.40;;;;;;4983098;28;19917;-88
2022/06/14 00:57:32;;;;;;;;;;;14.00;47.40;;;;;;4995751;28;19933;-91
2022/06/14 01:00:04;;;;;;;;;;;14.00;47.50;;;;;;4994428;28;19917;-89
2022/06/14 01:02:31;;;;;;;;;;;14.00;47.50;;;;;;4995389;28;20393;-90
2022/06/14 01:04:59;;;;;;;;;;;13.90;47.60;;;;;;4994117;28;19933;-89
2022/06/14 01:07:29;;;;;;;;;;;13.90;47.70;;;;;;4997008;28;19917;-89
2022/06/14 01:09:59;;;;;;;;;;;13.90;47.60;;;;;;4992334;28;19914;-89
2022/06/14 01:12:28;;;;;;;;;;;13.90;47.70;;;;;;4995695;28;20348;-88
2022/06/14 01:15:03;;;;;;;;;;;13.80;47.50;;;;;;4992689;28;19941;-90
2022/06/14 01:17:30;;;;;;;;;;;13.80;47.40;;;;;;4977104;28;19973;-88
2022/06/14 01:19:56;;;;;;;;;;;13.70;47.40;;;;;;4978327;28;19997;-89
2022/06/14 01:22:22;;;;;;;;;;;13.70;47.40;;;;;;4995705;28;19992;-89
2022/06/14 01:24:48;;;;;;;;;;;13.60;47.40;;;;;;5009616;28;19909;-89
2022/06/14 01:27:15;;;;;;;;;;;13.60;47.50;;;;;;5016759;28;19914;-89
2022/06/14 01:29:42;;;;;;;;;;;13.50;47.70;;;;;;5015390;28;19935;-88
2022/06/14 01:32:10;;;;;;;;;;;13.50;47.70;;;;;;4997480;28;19925;-88
2022/06/14 01:34:37;;;;;;;;;;;13.50;47.70;;;;;;4996136;28;19914;-89
2022/06/14 01:37:03;;;;;;;;;;;13.50;47.80;;;;;;4996189;28;19918;-88
2022/06/14 01:39:29;;;;;;;;;;;13.40;47.90;;;;;;4996401;28;19928;-88
2022/06/14 01:42:03;;;;;;;;;;;13.40;47.90;;;;;;4995108;28;20028;-88
2022/06/14 01:44:29;;;;;;;;;;;13.40;47.90;;;;;;4984998;28;19988;-87
2022/06/14 01:47:03;;;;;;;;;;;13.40;48.10;;;;;;4997653;28;19917;-88
2022/06/14 01:52:20;;;;;;;;;;;13.30;48.10;;;;;;4999024;28;19969;-88
2022/06/14 01:54:52;;;;;;;;;;;13.30;48.00;;;;;;4998150;28;19917;-89
2022/06/14 01:57:28;;;;;;;;;;;13.30;48.10;;;;;;4998765;28;19926;-91
2022/06/14 02:00:00;;;;;;;;;;;13.30;48.20;;;;;;5001344;28;19902;-91
2022/06/14 02:02:45;;;;;;;;;;;13.30;48.20;;;;;;5001128;28;19981;-91
2022/06/14 02:05:20;;;;;;;;;;;13.30;48.30;;;;;;5004078;28;19914;-91
2022/06/14 02:08:09;;;;;;;;;;;13.20;48.60;;;;;;4999127;28;19941;-89
2022/06/14 02:10:50;;;;;;;;;;;13.20;48.60;;;;;;4979277;28;20001;-88
2022/06/14 02:13:18;;;;;;;;;;;13.20;48.50;;;;;;4996506;28;19922;-88
2022/06/14 02:15:46;;;;;;;;;;;13.20;48.50;;;;;;4998252;28;20337;-88
2022/06/14 02:18:18;;;;;;;;;;;13.20;48.50;;;;;;4999499;28;19914;-89
2022/06/14 02:20:48;;;;;;;;;;;13.20;48.50;;;;;;4994634;28;19918;-87
2022/06/14 02:23:13;;;;;;;;;;;13.10;48.50;;;;;;4997102;28;19964;-88
2022/06/14 02:25:49;;;;;;;;;;;13.10;48.50;;;;;;5018276;28;19914;-89
2022/06/14 02:28:25;;;;;;;;;;;13.10;48.60;;;;;;4998921;28;19918;-89
2022/06/14 02:30:54;;;;;;;;;;;13.10;48.60;;;;;;5001927;28;20431;-89
2022/06/14 02:33:26;;;;;;;;;;;13.10;48.70;;;;;;4999262;28;19995;-89
2022/06/14 02:35:57;;;;;;;;;;;13.10;48.90;;;;;;4998488;28;20576;-89
2022/06/14 02:38:27;;;;;;;;;;;13.10;48.90;;;;;;5005456;28;19922;-88
2022/06/14 02:40:57;;;;;;;;;;;13.10;49.00;;;;;;5025700;28;20421;-88
2022/06/14 02:43:34;;;;;;;;;;;13.10;48.90;;;;;;5021382;28;20289;-89
2022/06/14 02:46:13;;;;;;;;;;;13.10;48.80;;;;;;5020283;28;19914;-88
2022/06/14 02:48:47;;;;;;;;;;;13.10;48.90;;;;;;5015278;28;19922;-89
2022/06/14 02:51:19;;;;;;;;;;;13.10;49.00;;;;;;5000243;28;19917;-88
2022/06/14 02:54:04;;;;;;;;;;;13.10;49.20;;;;;;5000158;28;19913;-89
2022/06/14 02:56:40;;;;;;;;;;;13.10;49.20;;;;;;5000199;28;19918;-89
2022/06/14 02:59:14;;;;;;;;;;;13.10;49.20;;;;;;4999981;28;19990;-89
2022/06/14 03:01:53;;;;;;;;;;;13.10;49.20;;;;;;5000239;28;19922;-88
2022/06/14 03:04:23;;;;;;;;;;;13.10;49.30;;;;;;4999735;28;19941;-88
2022/06/14 03:06:52;;;;;;;;;;;13.10;49.30;;;;;;4999672;28;19913;-88
2022/06/14 03:09:20;;;;;;;;;;;13.10;49.30;;;;;;4998312;28;19946;-88
2022/06/14 03:12:04;;;;;;;;;;;13.10;49.50;;;;;;4998544;28;19920;-89
2022/06/14 03:14:45;;;;;;;;;;;13.10;49.50;;;;;;4993338;28;19976;-89
2022/06/14 03:17:29;;;;;;;;;;;13.10;49.80;;;;;;4978516;28;19926;-88
2022/06/14 03:20:13;;;;;;;;;;;13.00;50.00;;;;;;5008697;28;20481;-89
2022/06/14 03:22:50;;;;;;;;;;;13.00;50.20;;;;;;5018055;28;20635;-88
2022/06/14 03:25:15;;;;;;;;;;;13.00;50.50;;;;;;5011774;28;19913;-89
2022/06/14 03:28:02;;;;;;;;;;;13.00;50.50;;;;;;4999777;28;20021;-89
2022/06/14 03:30:31;;;;;;;;;;;13.10;50.60;;;;;;4997404;28;19914;-88
2022/06/14 03:33:03;;;;;;;;;;;13.10;50.40;;;;;;4998441;28;19914;-89
2022/06/14 03:35:30;;;;;;;;;;;13.10;50.40;;;;;;5018308;28;20361;-88
2022/06/14 03:37:57;;;;;;;;;;;13.10;50.70;;;;;;5019562;28;19917;-89
2022/06/14 03:40:23;;;;;;;;;;;13.20;50.70;;;;;;4999040;28;19972;-89
2022/06/14 03:42:48;;;;;;;;;;;13.20;50.70;;;;;;4997632;28;19914;-89
2022/06/14 03:45:16;;;;;;;;;;;13.30;50.60;;;;;;5015251;28;19914;-89
2022/06/14 03:47:42;;;;;;;;;;;13.30;51.00;;;;;;5019925;28;20026;-90
2022/06/14 03:50:15;;;;;;;;;;;13.30;51.00;;;;;;5000011;28;19913;-88
2022/06/14 03:52:59;;;;;;;;;;;13.40;50.90;;;;;;4997088;28;20385;-89
2022/06/14 03:55:27;;;;;;;;;;;13.50;50.80;;;;;;5015816;28;20267;-88
2022/06/14 03:58:01;;;;;;;;;;;13.60;50.90;;;;;;5018296;28;19929;-89
2022/06/14 04:00:41;;;;;;;;;;;13.60;50.80;;;;;;5003665;28;20363;-89
2022/06/14 04:03:26;;;;;;;;;;;13.70;50.90;;;;;;4995266;28;19918;-89
2022/06/14 04:06:07;;;;;;;;;;;13.80;51.00;;;;;;4986424;28;19910;-85
2022/06/14 04:08:34;;;;;;;;;;;13.90;50.90;;;;;;4983803;28;19926;-88
2022/06/14 04:10:59;;;;;;;;;;;14.00;50.80;;;;;;4994803;28;19992;-87
2022/06/14 04:13:37;;;;;;;;;;;14.00;50.80;;;;;;4985090;28;19960;-88
2022/06/14 04:16:15;;;;;;;;;;;14.10;50.70;;;;;;4986782;28;20404;-88
2022/06/14 04:18:47;;;;;;;;;;;14.20;50.70;;;;;;4991460;28;19922;-89
2022/06/14 04:21:21;;;;;;;;;;;14.30;50.70;;;;;;4987210;28;19918;-88
2022/06/14 04:24:09;;;;;;;;;;;14.40;50.60;;;;;;4988381;28;19985;-88
2022/06/14 04:26:40;;;;;;;;;;;14.60;50.80;;;;;;4993015;28;19997;-88
2022/06/14 04:29:12;;;;;;;;;;;14.70;50.90;;;;;;4993908;28;19964;-88
2022/06/14 04:31:43;;;;;;;;;;;14.80;50.90;;;;;;4984852;28;20355;-88
2022/06/14 04:34:16;;;;;;;;;;;14.90;50.90;;;;;;4996713;28;19914;-89
2022/06/14 04:36:45;;;;;;;;;;;15.10;50.90;;;;;;4995927;28;19918;-88
2022/06/14 04:39:14;;;;;;;;;;;15.20;50.90;;;;;;5005230;28;19925;-88
2022/06/14 04:41:43;;;;;;;;;;;15.30;51.00;;;;;;5005187;28;19920;-88
2022/06/14 04:44:09;;;;;;;;;;;15.40;51.10;;;;;;4994309;28;20397;-90
2022/06/14 04:46:40;;;;;;;;;;;15.50;51.30;;;;;;5016877;28;19913;-89
2022/06/14 04:49:17;;;;;;;;;;;15.60;51.30;;;;;;5013162;28;19913;-89
2022/06/14 04:51:45;;;;;;;;;;;15.70;51.30;;;;;;4996809;28;19914;-89
2022/06/14 04:54:30;;;;;;;;;;;15.70;51.30;;;;;;4996590;28;19919;-89
2022/06/14 04:57:08;;;;;;;;;;;15.80;51.30;;;;;;4996458;28;19918;-89
2022/06/14 04:59:37;;;;;;;;;;;15.90;51.40;;;;;;4996466;28;19929;-89
2022/06/14 05:02:23;;;;;;;;;;;16.10;51.40;;;;;;4997292;28;19945;-89
2022/06/14 05:04:53;;;;;;;;;;;16.20;51.40;;;;;;4985126;28;19918;-89
2022/06/14 05:07:22;;;;;;;;;;;16.40;51.40;;;;;;5012993;28;20021;-88
2022/06/14 05:10:14;;;;;;;;;;;16.50;51.40;;;;;;5008564;28;19927;-88
2022/06/14 05:12:45;;;;;;;;;;;16.60;51.30;;;;;;4969679;28;20008;-88
2022/06/14 05:15:18;;;;;;;;;;;16.70;51.30;;;;;;4974809;28;19918;-88
2022/06/14 05:17:47;;;;;;;;;;;16.80;51.50;;;;;;4975681;28;19929;-90
2022/06/14 05:20:16;;;;;;;;;;;17.10;51.70;;;;;;4992518;28;19922;-91
2022/06/14 05:22:45;;;;;;;;;;;17.30;51.70;;;;;;4998911;28;19914;-90
2022/06/14 05:25:10;;;;;;;;;;;17.50;51.80;;;;;;5009843;28;19992;-91
2022/06/14 05:27:46;;;;;;;;;;;17.70;51.60;;;;;;5015458;28;19963;-90
2022/06/14 05:30:30;;;;;;;;;;;17.90;51.50;;;;;;4998437;28;20016;-90
2022/06/14 05:33:01;;;;;;;;;;;18.20;51.50;;;;;;4995880;28;19913;-88
2022/06/14 05:35:43;;;;;;;;;;;18.30;51.60;;;;;;5012269;28;20374;-89
2022/06/14 05:38:40;;;;;;;;;;;18.60;51.20;;;;;;4986847;28;19926;-88
2022/06/14 05:41:10;;;;;;;;;;;18.80;50.80;;;;;;4961319;28;19925;-90
2022/06/14 05:43:42;;;;;;;;;;;19.10;50.60;;;;;;4998199;28;20023;-90
2022/06/14 05:46:11;;;;;;;;;;;19.30;50.30;;;;;;4993008;28;19996;-90
2022/06/14 05:48:42;;;;;;;;;;;19.60;49.80;;;;;;4994433;28;19914;-90
2022/06/14 05:51:10;;;;;;;;;;;19.80;49.40;;;;;;4997963;28;20385;-91
2022/06/14 05:53:38;;;;;;;;;;;20.00;49.40;;;;;;4991684;28;19922;-90
2022/06/14 05:56:06;;;;;;;;;;;20.30;49.50;;;;;;5008734;28;19972;-92
2022/06/14 05:58:32;;;;;;;;;;;20.60;49.40;;;;;;5009533;28;19922;-90
2022/06/14 06:01:01;;;;;;;;;;;20.80;49.20;;;;;;4997164;28;19921;-90
2022/06/14 06:03:31;;;;;;;;;;;21.10;48.90;;;;;;4998841;28;19918;-91
2022/06/14 06:06:02;;;;;;;;;;;21.30;48.20;;;;;;4996769;28;20366;-91
2022/06/14 06:08:42;;;;;;;;;;;21.50;47.50;;;;;;4999893;28;19922;-91
2022/06/14 06:11:13;;;;;;;;;;;21.70;47.40;;;;;;5015650;28;19988;-92
2022/06/14 06:13:47;;;;;;;;;;;21.90;47.20;;;;;;5010215;28;20532;-91
2022/06/14 06:16:16;;;;;;;;;;;22.20;47.00;;;;;;4978122;28;20374;-91
2022/06/14 06:18:42;;;;;;;;;;;22.50;46.70;;;;;;4996246;28;19921;-92
2022/06/14 06:21:26;;;;;;;;;;;23.00;46.10;;;;;;4997520;28;19913;-91
2022/06/14 06:23:58;;;;;;;;;;;23.20;44.90;;;;;;4995189;28;19914;-90
2022/06/14 06:26:27;;;;;;;;;;;23.60;44.30;;;;;;4994857;28;20012;-91
2022/06/14 06:28:55;;;;;;;;;;;23.80;43.70;;;;;;4996796;28;19928;-91
2022/06/14 06:31:22;;;;;;;;;;;24.10;43.30;;;;;;4996348;28;19918;-90
2022/06/14 06:33:49;;;;;;;;;;;24.30;42.80;;;;;;4999354;28;19937;-91
2022/06/14 06:36:18;;;;;;;;;;;24.70;42.40;;;;;;4998454;28;19965;-91
2022/06/14 06:39:00;;;;;;;;;;;24.90;42.10;;;;;;4998963;28;19920;-93
2022/06/14 06:44:20;;;;;;;;;;;25.20;40.10;;;;;;5007285;28;19936;-91
2022/06/14 06:46:49;;;;;;;;;;;25.30;39.90;;;;;;5009048;28;19968;-90
2022/06/14 06:49:15;;;;;;;;;;;25.50;38.90;;;;;;5005531;28;19960;-90
2022/06/14 06:51:47;;;;;;;;;;;25.80;38.60;;;;;;5000413;28;20332;-90
2022/06/14 06:54:24;;;;;;;;;;;25.90;38.10;;;;;;5006901;28;19924;-90
2022/06/14 06:56:55;;;;;;;;;;;26.00;37.80;;;;;;5016561;28;19949;-93
2022/06/14 06:59:23;;;;;;;;;;;26.20;38.30;;;;;;5018319;28;19933;-91
2022/06/14 07:01:49;;;;;;;;;;;26.60;37.40;;;;;;5018713;28;20389;-90
2022/06/14 07:04:18;;;;;;;;;;;26.90;37.30;;;;;;5008100;28;19920;-92
2022/06/14 07:06:50;;;;;;;;;;;27.20;37.10;;;;;;4997547;28;19917;-91
2022/06/14 07:09:16;;;;;;;;;;;27.50;36.10;;;;;;4998287;28;19941;-88
2022/06/14 07:11:50;;;;;;;;;;;27.70;35.10;;;;;;4997133;28;19914;-91
2022/06/14 07:14:27;;;;;;;;;;;27.90;35.20;;;;;;4998138;28;19917;-88
2022/06/14 07:17:02;;;;;;;;;;;28.20;35.00;;;;;;4997048;28;19926;-90
2022/06/14 07:19:30;;;;;;;;;;;28.40;34.20;;;;;;5011949;28;19918;-88
2022/06/14 07:21:59;;;;;;;;;;;28.60;33.90;;;;;;4997740;28;19925;-87
2022/06/14 07:24:35;;;;;;;;;;;28.80;33.50;;;;;;5006192;28;19910;-88
2022/06/14 07:27:07;;;;;;;;;;;29.20;33.80;;;;;;5001799;28;19917;-89
2022/06/14 07:29:43;;;;;;;;;;;29.50;32.90;;;;;;4999374;28;20361;-90
2022/06/14 07:32:14;;;;;;;;;;;29.80;32.10;;;;;;4999140;28;20370;-92
2022/06/14 07:34:40;;;;;;;;;;;30.10;32.30;;;;;;4999593;28;20013;-90
2022/06/14 07:37:17;;;;;;;;;;;30.40;31.50;;;;;;4998677;28;19926;-89
2022/06/14 07:39:45;;;;;;;;;;;30.50;31.00;;;;;;5005710;28;19921;-90
2022/06/14 07:42:11;;;;;;;;;;;30.70;30.90;;;;;;4999665;28;19922;-88
2022/06/14 07:44:46;;;;;;;;;;;31.00;31.20;;;;;;4996403;28;19914;-91
2022/06/14 07:47:15;;;;;;;;;;;31.30;30.50;;;;;;4997238;28;20405;-88
2022/06/14 07:49:50;;;;;;;;;;;31.50;29.20;;;;;;4996882;28;19913;-89
2022/06/14 07:52:19;;;;;;;;;;;31.40;29.40;;;;;;4999245;28;20012;-89
2022/06/14 07:54:46;;;;;;;;;;;31.30;29.20;;;;;;5010210;28;20047;-88
2022/06/14 07:57:15;;;;;;;;;;;31.30;29.20;;;;;;5013438;28;19922;-87
2022/06/14 07:59:47;;;;;;;;;;;31.50;28.70;;;;;;4995530;28;19921;-88
2022/06/14 08:02:12;;;;;;;;;;;31.50;28.30;;;;;;4994734;28;19996;-88
2022/06/14 08:04:42;;;;;;;;;;;31.50;27.30;;;;;;4982412;28;19914;-89
2022/06/14 08:07:15;;;;;;;;;;;31.70;27.90;;;;;;4975849;28;19961;-88
2022/06/14 08:09:43;;;;;;;;;;;32.10;27.50;;;;;;4989717;28;19914;-87
2022/06/14 08:12:14;;;;;;;;;;;32.40;27.20;;;;;;4995033;28;19917;-89
2022/06/14 08:14:47;;;;;;;;;;;32.70;26.90;;;;;;4979725;28;19964;-88
2022/06/14 08:17:17;;;;;;;;;;;32.90;26.80;;;;;;4996405;28;20402;-87
2022/06/14 08:19:58;;;;;;;;;;;33.20;26.30;;;;;;5008853;28;19924;-88
2022/06/14 08:22:29;;;;;;;;;;;33.30;26.30;;;;;;5014920;28;19925;-88
2022/06/14 08:24:59;;;;;;;;;;;33.80;26.60;;;;;;4999007;28;19914;-87
2022/06/14 08:27:29;;;;;;;;;;;34.50;26.30;;;;;;4995573;28;20060;-88
2022/06/14 08:29:57;;;;;;;;;;;35.30;25.00;;;;;;4994882;28;19913;-88
2022/06/14 08:32:41;;;;;;;;;;;36.00;23.30;;;;;;5010936;28;19921;-89
2022/06/14 08:35:12;;;;;;;;;;;36.00;22.30;;;;;;4990466;28;19918;-87
2022/06/14 08:38:00;;;;;;;;;;;35.90;21.80;;;;;;4982155;28;20397;-89
2022/06/14 08:40:33;;;;;;;;;;;35.80;21.90;;;;;;4986969;28;19925;-89
2022/06/14 08:43:02;;;;;;;;;;;35.70;22.00;;;;;;4976602;28;20354;-88
2022/06/14 08:45:30;;;;;;;;;;;35.50;21.80;;;;;;4996445;28;19914;-88
2022/06/14 08:48:04;;;;;;;;;;;35.10;21.30;;;;;;4978119;28;19914;-88
2022/06/14 08:50:48;;;;;;;;;;;34.70;21.60;;;;;;4996301;28;19949;-87
2022/06/14 08:53:26;;;;;;;;;;;34.30;22.00;;;;;;4996413;28;19917;-89
2022/06/14 08:56:02;;;;;;;;;;;34.00;22.50;;;;;;4995915;28;20429;-89
2022/06/14 08:58:46;;;;;;;;;;;33.90;22.20;;;;;;4995917;28;19917;-88
2022/06/14 09:01:17;;;;;;;;;;;33.80;21.70;;;;;;4997350;28;19922;-90
2022/06/14 09:03:46;;;;;;;;;;;33.50;22.20;;;;;;4997805;28;19913;-89
2022/06/14 09:06:20;;;;;;;;;;;33.30;22.60;;;;;;4995706;28;19918;-87
2022/06/14 09:08:52;;;;;;;;;;;33.10;23.00;;;;;;4994454;28;19909;-88
2022/06/14 09:11:17;;;;;;;;;;;32.90;23.10;;;;;;4995822;28;20020;-88
2022/06/14 09:14:03;;;;;;;;;;;32.70;23.10;;;;;;4995914;28;19957;-90
2022/06/14 09:16:34;;;;;;;;;;;32.70;23.50;;;;;;4997090;28;19922;-88
2022/06/14 09:19:20;;;;;;;;;;;33.30;23.70;;;;;;4997994;28;19928;-90
2022/06/14 09:21:54;;;;;;;;;;;33.70;23.10;;;;;;4979405;28;19914;-90
2022/06/14 09:24:25;;;;;;;;;;;33.80;22.70;;;;;;4995914;28;19920;-89
2022/06/14 09:26:56;;;;;;;;;;;33.70;22.90;;;;;;4996060;28;19949;-89
2022/06/14 09:29:40;;;;;;;;;;;33.70;22.90;;;;;;4993888;28;19976;-89
2022/06/14 09:32:15;;;;;;;;;;;34.10;23.10;;;;;;4996772;28;19917;-91
2022/06/14 09:34:51;;;;;;;;;;;34.50;22.00;;;;;;4995626;28;19913;-88
2022/06/14 09:37:16;;;;;;;;;;;34.70;21.00;;;;;;4994492;28;19925;-89
2022/06/14 09:39:42;;;;;;;;;;;35.00;20.90;;;;;;5007396;28;19923;-89
2022/06/14 09:42:07;;;;;;;;;;;35.50;21.00;;;;;;5014348;28;20272;-89
2022/06/14 09:44:32;;;;;;;;;;;35.80;20.90;;;;;;4992940;28;19993;-90
2022/06/14 09:47:04;;;;;;;;;;;35.80;20.80;;;;;;4986756;28;19944;-89
2022/06/14 09:49:42;;;;;;;;;;;35.60;20.90;;;;;;5007442;28;20015;-91
2022/06/14 09:52:26;;;;;;;;;;;35.50;21.00;;;;;;5015820;28;19917;-90
2022/06/14 09:55:05;;;;;;;;;;;35.60;21.10;;;;;;5000698;28;19949;-89
2022/06/14 09:57:52;;;;;;;;;;;36.20;20.90;;;;;;4994063;28;19922;-88
2022/06/14 10:00:32;;;;;;;;;;;36.70;20.60;;;;;;4993222;28;19921;-87
2022/06/14 10:03:03;;;;;;;;;;;37.50;19.70;;;;;;4993662;28;20544;-88
2022/06/14 10:05:42;;;;;;;;;;;37.80;19.60;;;;;;5016264;28;19957;-88
2022/06/14 10:08:26;;;;;;;;;;;38.00;19.30;;;;;;4992786;28;19915;-88
2022/06/14 10:10:57;;;;;;;;;;;38.00;18.90;;;;;;4982205;28;19918;-89
2022/06/14 10:13:34;;;;;;;;;;;38.20;19.10;;;;;;4984044;28;19913;-89
2022/06/14 10:16:03;;;;;;;;;;;38.40;19.00;;;;;;4993488;28;20057;-89
2022/06/14 10:18:35;;;;;;;;;;;38.80;18.10;;;;;;4981477;28;20790;-91
2022/06/14 10:21:05;;;;;;;;;;;38.60;18.20;;;;;;4988781;28;19921;-88
2022/06/14 10:23:49;;;;;;;;;;;38.40;18.20;;;;;;4994702;28;19968;-88
2022/06/14 10:29:26;;;;;;;;;;;37.80;18.50;;;;;;4986966;28;20009;-89
2022/06/14 10:32:00;;;;;;;;;;;37.50;18.60;;;;;;4979464;28;19914;-89
2022/06/14 10:34:37;;;;;;;;;;;37.10;18.90;;;;;;4994469;28;19918;-88
2022/06/14 10:37:12;;;;;;;;;;;36.80;19.20;;;;;;4982975;28;20302;-88
2022/06/14 10:39:40;;;;;;;;;;;36.60;19.20;;;;;;5006761;28;19949;-88
2022/06/14 10:42:24;;;;;;;;;;;36.40;19.30;;;;;;4987152;28;19963;-88
2022/06/14 10:44:54;;;;;;;;;;;36.30;19.50;;;;;;5013131;28;19941;-89
2022/06/14 10:47:23;;;;;;;;;;;36.40;19.80;;;;;;5015153;28;19917;-89
2022/06/14 10:49:49;;;;;;;;;;;37.20;19.50;;;;;;5003513;28;19937;-88
2022/06/14 10:52:30;;;;;;;;;;;38.00;18.40;;;;;;4996919;28;19925;-89
2022/06/14 10:55:05;;;;;;;;;;;38.60;17.80;;;;;;5011464;28;20310;-90
2022/06/14 10:57:50;;;;;;;;;;;38.80;17.30;;;;;;4983406;28;19928;-89
2022/06/14 11:00:21;;;;;;;;;;;38.60;17.50;;;;;;4993474;28;19918;-89
2022/06/14 11:02:57;;;;;;;;;;;38.30;17.40;;;;;;4977963;28;19937;-89
2022/06/14 11:05:26;;;;;;;;;;;37.80;17.70;;;;;;5011559;28;19922;-88
2022/06/14 11:07:51;;;;;;;;;;;37.30;17.80;;;;;;4995943;28;19914;-89
2022/06/14 11:10:19;;;;;;;;;;;37.00;18.10;;;;;;5014747;28;20016;-90
2022/06/14 11:13:03;;;;;;;;;;;36.70;18.10;;;;;;5016341;28;20389;-90
2022/06/14 11:15:31;;;;;;;;;;;36.50;18.40;;;;;;5020001;28;19917;-89
2022/06/14 11:18:16;;;;;;;;;;;36.80;18.70;;;;;;5014908;28;20242;-89
2022/06/14 11:20:41;;;;;;;;;;;37.40;18.30;;;;;;4976664;28;19936;-89
2022/06/14 11:23:13;;;;;;;;;;;37.90;17.60;;;;;;4992900;28;20013;-89
2022/06/14 11:25:47;;;;;;;;;;;38.40;17.60;;;;;;5009032;28;19918;-90
2022/06/14 11:28:13;;;;;;;;;;;38.90;17.30;;;;;;4998400;28;20396;-89
2022/06/14 11:30:45;;;;;;;;;;;38.70;17.30;;;;;;4998045;28;19949;-89
2022/06/14 11:33:11;;;;;;;;;;;38.80;17.20;;;;;;4995523;28;20058;-89
2022/06/14 11:35:51;;;;;;;;;;;39.30;17.30;;;;;;4997704;28;20778;-89
2022/06/14 11:38:35;;;;;;;;;;;39.90;16.70;;;;;;4994732;28;19925;-90
2022/06/14 11:41:05;;;;;;;;;;;40.40;16.00;;;;;;4992307;28;19918;-90
2022/06/14 11:43:36;;;;;;;;;;;40.60;15.40;;;;;;4998644;28;19914;-89
2022/06/14 11:46:18;;;;;;;;;;;40.80;15.60;;;;;;5015556;28;19960;-89
2022/06/14 11:48:52;;;;;;;;;;;41.30;15.40;;;;;;5007936;28;19921;-89
2022/06/14 11:51:33;;;;;;;;;;;41.30;15.10;;;;;;4996308;28;19918;-89
2022/06/14 11:54:19;;;;;;;;;;;40.70;15.30;;;;;;4995828;28;20259;-90
2022/06/14 11:56:50;;;;;;;;;;;40.20;15.70;;;;;;4998024;28;19928;-91
2022/06/14 11:59:16;;;;;;;;;;;40.40;15.70;;;;;;4996750;28;19918;-92
2022/06/14 12:01:47;;;;;;;;;;;41.00;15.60;;;;;;4996938;28;19957;-90
2022/06/14 12:04:31;;;;;;;;;;;41.60;15.10;;;;;;4998400;28;20286;-92
2022/06/14 12:07:05;;;;;;;;;;;42.10;15.00;;;;;;4998599;28;19921;-91
2022/06/14 12:09:33;;;;;;;;;;;42.50;15.00;;;;;;4998705;28;19918;-90
2022/06/14 12:12:10;;;;;;;;;;;42.90;14.80;;;;;;4997652;28;19914;-91
2022/06/14 12:14:42;;;;;;;;;;;43.30;14.70;;;;;;5008011;28;20251;-90
2022/06/14 12:17:25;;;;;;;;;;;43.50;14.10;;;;;;5015561;28;20020;-91
2022/06/14 12:19:55;;;;;;;;;;;43.70;14.00;;;;;;4992999;28;19922;-89
2022/06/14 12:22:36;;;;;;;;;;;43.80;13.80;;;;;;4978185;28;19914;-90
2022/06/14 12:27:50;;;;;;;;;;;44.20;13.70;;;;;;5017978;28;19920;-92
2022/06/14 12:30:17;;;;;;;;;;;44.30;13.50;;;;;;4999917;28;20338;-90
2022/06/14 12:32:47;;;;;;;;;;;44.30;13.40;;;;;;4997237;28;19918;-90
2022/06/14 12:35:12;;;;;;;;;;;44.30;13.10;;;;;;4997761;28;19922;-90
2022/06/14 12:38:01;;;;;;;;;;;44.00;13.10;;;;;;4997358;28;20665;-90
2022/06/14 12:40:44;;;;;;;;;;;43.70;13.00;;;;;;5013801;28;19937;-89
2022/06/14 12:43:21;;;;;;;;;;;42.80;13.10;;;;;;5014325;28;19925;-90
2022/06/14 12:45:49;;;;;;;;;;;42.50;13.50;;;;;;4994387;28;19914;-91
2022/06/14 12:48:26;;;;;;;;;;;42.10;13.20;;;;;;4996881;28;19918;-90
2022/06/14 12:51:05;;;;;;;;;;;41.30;13.70;;;;;;4995362;28;20281;-91
2022/06/14 12:53:36;;;;;;;;;;;40.90;14.00;;;;;;4995172;28;19969;-93
2022/06/14 12:56:09;;;;;;;;;;;39.70;14.50;;;;;;4993937;28;19913;-91
2022/06/14 12:58:47;;;;;;;;;;;39.10;15.00;;;;;;4997970;28;19925;-91
2022/06/14 13:01:19;;;;;;;;;;;39.00;15.20;;;;;;4974818;28;19918;-91
2022/06/14 13:03:56;;;;;;;;;;;39.00;15.50;;;;;;4975978;28;19918;-90
2022/06/14 13:06:27;;;;;;;;;;;39.20;15.40;;;;;;4990307;28;19974;-90
2022/06/14 13:09:04;;;;;;;;;;;39.40;15.60;;;;;;4995693;28;19928;-91
2022/06/14 13:11:36;;;;;;;;;;;39.70;15.60;;;;;;4993511;28;19914;-92
2022/06/14 13:14:09;;;;;;;;;;;39.80;15.50;;;;;;5001977;28;19918;-90
2022/06/14 13:16:38;;;;;;;;;;;39.90;15.30;;;;;;5013215;28;20448;-90
2022/06/14 13:19:08;;;;;;;;;;;39.80;15.30;;;;;;5005491;28;20392;-90
2022/06/14 13:21:37;;;;;;;;;;;39.70;15.30;;;;;;4994157;28;19925;-91
2022/06/14 13:24:26;;;;;;;;;;;39.70;15.10;;;;;;4991142;28;19937;-90
2022/06/14 13:27:07;;;;;;;;;;;39.40;15.10;;;;;;4974192;28;19977;-91
2022/06/14 13:29:42;;;;;;;;;;;39.30;15.50;;;;;;4992975;28;20337;-89
2022/06/14 13:32:16;;;;;;;;;;;39.20;15.50;;;;;;4994494;28;20022;-89
2022/06/14 13:34:44;;;;;;;;;;;38.70;15.70;;;;;;4966948;28;19925;-90
2022/06/14 13:37:29;;;;;;;;;;;38.10;16.20;;;;;;4974562;28;19930;-90
2022/06/14 13:40:02;;;;;;;;;;;37.80;16.60;;;;;;4973959;28;19918;-90
2022/06/14 13:42:31;;;;;;;;;;;37.60;16.90;;;;;;4977811;28;19917;-90
2022/06/14 13:45:02;;;;;;;;;;;37.70;16.90;;;;;;5007919;28;19910;-90
2022/06/14 13:47:32;;;;;;;;;;;37.70;16.80;;;;;;4997130;28;19956;-90
2022/06/14 13:49:59;;;;;;;;;;;37.70;16.60;;;;;;4984156;28;20001;-90
2022/06/14 13:52:40;;;;;;;;;;;37.50;16.80;;;;;;4994235;28;20008;-92
2022/06/14 13:55:18;;;;;;;;;;;37.70;16.60;;;;;;5009433;28;19914;-92
2022/06/14 13:57:47;;;;;;;;;;;37.20;16.70;;;;;;4996903;28;19918;-91
2022/06/14 14:00:29;;;;;;;;;;;36.80;17.00;;;;;;4996239;28;19929;-91
2022/06/14 14:03:14;;;;;;;;;;;36.80;17.00;;;;;;4997435;28;19968;-92
2022/06/14 14:05:42;;;;;;;;;;;36.70;17.20;;;;;;4977813;28;19918;-93
2022/06/14 14:08:11;;;;;;;;;;;36.70;17.30;;;;;;4976112;28;19914;-92
2022/06/14 14:11:01;;;;;;;;;;;36.60;17.30;;;;;;4976390;28;19918;-90
2022/06/14 14:13:35;;;;;;;;;;;36.70;17.40;;;;;;4981927;28;20381;-91
2022/06/14 14:16:07;;;;;;;;;;;36.80;17.30;;;;;;5014475;28;20671;-88
2022/06/14 14:18:33;;;;;;;;;;;37.10;17.20;;;;;;5011008;28;19940;-92
2022/06/14 14:21:12;;;;;;;;;;;37.00;17.10;;;;;;4995291;28;19918;-92
2022/06/14 14:23:45;;;;;;;;;;;36.80;17.30;;;;;;5016181;28;19913;-90
2022/06/14 14:26:17;;;;;;;;;;;36.90;17.50;;;;;;4995992;28;19917;-89
2022/06/14 14:28:49;;;;;;;;;;;36.50;17.70;;;;;;4990651;28;19941;-91
2022/06/14 14:31:36;;;;;;;;;;;36.20;17.80;;;;;;4976158;28;19924;-88
2022/06/14 14:34:16;;;;;;;;;;;35.70;18.20;;;;;;4991214;28;20008;-87
2022/06/14 14:37:11;;;;;;;;;;;35.10;18.60;;;;;;5015089;28;19936;-88
2022/06/14 14:39:46;;;;;;;;;;;34.50;19.00;;;;;;4985598;28;20072;-89
2022/06/14 14:42:12;;;;;;;;;;;33.90;19.70;;;;;;4992993;28;19925;-90
2022/06/14 14:44:46;;;;;;;;;;;33.30;20.20;;;;;;4993335;28;20377;-88
2022/06/14 14:47:38;;;;;;;;;;;32.70;20.60;;;;;;4996458;28;19918;-89
2022/06/14 14:50:07;;;;;;;;;;;32.10;21.30;;;;;;5000120;28;19918;-89
2022/06/14 14:52:40;;;;;;;;;;;31.30;21.90;;;;;;4993945;28;19914;-88
2022/06/14 14:55:25;;;;;;;;;;;30.70;22.40;;;;;;4996242;28;19941;-92
2022/06/14 14:58:16;;;;;;;;;;;30.10;22.80;;;;;;4994294;28;20067;-89
2022/06/14 15:06:48;;;;;;;;;;;28.80;24.00;;;;;;4965238;28;19925;-90